createdAt,value
2023-05-15T00:02:29.976Z,70.50
2023-05-15T00:05:31.828Z,70.46
2023-05-15T00:08:33.376Z,71.52
2023-05-15T00:11:34.974Z,71.54
2023-05-15T00:14:36.694Z,71.45
2023-05-15T00:17:38.328Z,71.17
2023-05-15T00:20:40.038Z,71.03
2023-05-15T00:23:41.741Z,71.40
2023-05-15T00:26:43.472Z,71.59
2023-05-15T00:29:45.106Z,71.92
2023-05-15T00:32:46.849Z,71.91
2023-05-15T00:35:48.612Z,72.03
2023-05-15T00:38:50.242Z,72.48
2023-05-15T00:41:52.333Z,73.78
2023-05-15T00:44:54.394Z,73.49
2023-05-15T00:47:57.807Z,73.20
2023-05-15T00:50:59.819Z,72.52
2023-05-15T00:54:01.825Z,72.85
2023-05-15T00:57:05.514Z,73.26
2023-05-15T01:00:07.992Z,74.39
2023-05-15T01:03:09.837Z,73.81
2023-05-15T01:06:12.177Z,73.58
2023-05-15T01:09:14.397Z,73.38
2023-05-15T01:12:16.965Z,73.42
2023-05-15T01:15:18.656Z,73.47
2023-05-15T01:18:20.298Z,73.77
2023-05-15T01:21:37.197Z,73.53
2023-05-15T01:25:07.876Z,73.93
2023-05-15T01:28:12.438Z,73.94
2023-05-15T01:31:19.787Z,73.91
2023-05-15T01:34:24.070Z,74.46
2023-05-15T01:37:27.049Z,74.28
2023-05-15T01:40:29.009Z,74.00
2023-05-15T01:43:32.162Z,73.72
2023-05-15T01:46:36.797Z,73.62
2023-05-15T01:49:38.594Z,73.51
2023-05-15T01:52:43.079Z,73.77
2023-05-15T01:55:45.034Z,74.13
2023-05-15T01:58:47.113Z,74.21
2023-05-15T02:01:50.568Z,73.90
2023-05-15T02:04:52.650Z,74.11
2023-05-15T02:07:54.798Z,73.96
2023-05-15T02:11:00.194Z,73.84
2023-05-15T02:14:01.924Z,73.80
2023-05-15T02:17:03.596Z,73.80
2023-05-15T02:20:05.903Z,73.63
2023-05-15T02:23:07.408Z,73.59
2023-05-15T02:26:09.142Z,73.70
2023-05-15T02:29:21.245Z,73.54
2023-05-15T02:32:41.205Z,73.52
2023-05-15T02:35:53.054Z,73.47
2023-05-15T02:38:55.491Z,73.41
2023-05-15T02:41:57.737Z,73.41
2023-05-15T02:45:00.168Z,73.28
2023-05-15T02:48:02.815Z,73.46
2023-05-15T02:51:04.744Z,73.55
2023-05-15T02:54:06.350Z,73.70
2023-05-15T02:57:07.926Z,73.38
2023-05-15T03:00:10.353Z,73.45
2023-05-15T03:03:11.888Z,73.53
2023-05-15T03:06:13.437Z,73.73
2023-05-15T03:09:14.984Z,73.75
2023-05-15T03:12:16.656Z,73.83
2023-05-15T03:15:18.325Z,74.35
2023-05-15T03:18:20.826Z,73.98
2023-05-15T03:21:22.436Z,73.92
2023-05-15T03:24:24.066Z,73.97
2023-05-15T03:27:25.706Z,74.09
2023-05-15T03:30:27.375Z,73.87
2023-05-15T03:33:29.093Z,74.14
2023-05-15T03:36:30.833Z,74.33
2023-05-15T03:39:32.328Z,75.13
2023-05-15T03:42:33.832Z,75.63
2023-05-15T03:45:36.193Z,75.75
2023-05-15T03:48:37.745Z,75.44
2023-05-15T03:51:39.463Z,76.16
2023-05-15T03:54:42.284Z,76.17
2023-05-15T03:57:43.943Z,76.32
2023-05-15T04:00:45.563Z,76.45
2023-05-15T04:03:47.195Z,76.20
2023-05-15T04:06:49.095Z,76.04
2023-05-15T04:09:50.760Z,76.42
2023-05-15T04:12:52.697Z,76.04
2023-05-15T04:15:54.353Z,76.55
2023-05-15T04:18:56.191Z,76.64
2023-05-15T04:21:57.881Z,76.50
2023-05-15T04:24:59.483Z,76.77
2023-05-15T04:28:01.302Z,76.65
2023-05-15T04:31:02.878Z,76.98
2023-05-15T04:34:04.532Z,76.93
2023-05-15T04:37:06.117Z,76.59
2023-05-15T04:40:08.449Z,76.26
2023-05-15T04:43:10.177Z,76.28
2023-05-15T04:46:11.821Z,76.27
2023-05-15T04:49:13.415Z,76.11
2023-05-15T04:52:15.211Z,76.16
2023-05-15T04:55:16.887Z,76.17
2023-05-15T04:58:18.471Z,76.53
2023-05-15T05:01:20.329Z,76.44
2023-05-15T05:04:22.061Z,76.42
2023-05-15T05:07:26.656Z,76.39
2023-05-15T05:10:28.314Z,76.62
2023-05-15T05:13:29.839Z,76.43
2023-05-15T05:16:31.513Z,76.38
2023-05-15T05:19:33.150Z,76.38
2023-05-15T05:22:34.735Z,77.06
2023-05-15T05:25:36.330Z,76.86
2023-05-15T05:31:25.032Z,76.53
2023-05-15T05:34:26.742Z,76.05
2023-05-15T05:37:28.365Z,76.21
2023-05-15T05:40:30.407Z,75.89
2023-05-15T05:43:31.986Z,75.90
2023-05-15T05:46:33.648Z,76.00
2023-05-15T05:49:35.383Z,75.79
2023-05-15T05:52:37.234Z,76.20
2023-05-15T05:55:38.855Z,76.60
2023-05-15T05:58:40.521Z,76.50
2023-05-15T06:01:42.218Z,76.17
2023-05-15T06:04:43.934Z,76.07
2023-05-15T06:07:45.691Z,76.05
2023-05-15T06:10:47.243Z,75.91
2023-05-15T06:13:48.817Z,75.86
2023-05-15T06:16:53.596Z,75.84
2023-05-15T06:19:55.260Z,75.70
2023-05-15T06:22:56.990Z,75.58
2023-05-15T06:25:58.660Z,75.61
2023-05-15T06:29:00.331Z,75.74
2023-05-15T06:32:02.019Z,75.98
2023-05-15T06:35:04.098Z,76.07
2023-05-15T06:38:05.708Z,76.09
2023-05-15T06:41:07.287Z,76.65
2023-05-15T06:44:08.924Z,76.48
2023-05-15T06:47:10.523Z,76.45
2023-05-15T06:50:12.181Z,76.52
2023-05-15T06:53:14.606Z,76.53
2023-05-15T06:56:16.763Z,76.70
2023-05-15T06:59:18.396Z,76.64
2023-05-15T07:02:19.937Z,76.41
2023-05-15T07:05:21.616Z,76.26
2023-05-15T07:08:23.145Z,76.12
2023-05-15T07:11:25.171Z,76.36
2023-05-15T07:14:26.802Z,76.14
2023-05-15T07:17:28.578Z,76.01
2023-05-15T07:20:32.370Z,75.99
2023-05-15T07:23:35.891Z,76.37
2023-05-15T07:26:46.917Z,76.16
2023-05-15T07:29:58.991Z,76.27
2023-05-15T07:33:00.642Z,76.20
2023-05-15T07:36:02.707Z,76.10
2023-05-15T07:39:04.368Z,76.22
2023-05-15T07:42:06.333Z,75.93
2023-05-15T07:45:08.478Z,75.90
2023-05-15T07:48:17.639Z,75.91
2023-05-15T07:51:19.186Z,75.75
2023-05-15T07:54:20.862Z,75.72
2023-05-15T07:57:22.477Z,75.49
2023-05-15T08:00:24.183Z,74.90
2023-05-15T08:03:26.089Z,74.61
2023-05-15T08:06:27.942Z,74.52
2023-05-15T08:09:29.514Z,74.41
2023-05-15T08:12:31.142Z,73.19
2023-05-15T08:15:32.987Z,72.89
2023-05-15T08:18:34.638Z,73.05
2023-05-15T08:21:36.405Z,72.79
2023-05-15T08:24:39.174Z,72.62
2023-05-15T08:27:40.938Z,72.46
2023-05-15T08:30:42.604Z,72.59
2023-05-15T08:33:44.244Z,72.49
2023-05-15T08:36:45.854Z,72.53
2023-05-15T08:39:47.532Z,72.06
2023-05-15T08:42:55.178Z,72.05
2023-05-15T08:45:56.989Z,71.64
2023-05-15T08:48:59.476Z,71.58
2023-05-15T08:52:01.078Z,71.21
2023-05-15T08:55:03.396Z,70.77
2023-05-15T08:58:05.016Z,70.20
2023-05-15T09:01:07.113Z,69.87
2023-05-15T09:04:09.193Z,69.64
2023-05-15T09:07:11.608Z,68.70
2023-05-15T09:10:14.118Z,68.74
2023-05-15T09:13:15.699Z,68.71
2023-05-15T09:16:17.392Z,68.60
2023-05-15T09:19:19.910Z,68.92
2023-05-15T09:22:21.523Z,69.14
2023-05-15T09:25:40.548Z,68.65
2023-05-15T09:28:42.274Z,68.59
2023-05-15T09:31:48.635Z,68.37
2023-05-15T09:34:50.402Z,67.88
2023-05-15T09:37:58.434Z,67.41
2023-05-15T09:41:05.196Z,67.49
2023-05-15T09:44:20.589Z,66.46
2023-05-15T09:47:29.605Z,66.03
2023-05-15T09:50:34.691Z,66.59
2023-05-15T09:53:36.266Z,66.41
2023-05-15T09:56:37.907Z,66.57
2023-05-15T09:59:47.561Z,66.71
2023-05-15T10:02:49.277Z,66.37
2023-05-15T10:05:50.979Z,66.41
2023-05-15T10:08:55.692Z,66.06
2023-05-15T10:11:57.412Z,66.27
2023-05-15T10:14:59.858Z,66.14
2023-05-15T10:18:04.192Z,64.92
2023-05-15T10:21:07.992Z,65.19
2023-05-15T10:24:09.584Z,65.60
2023-05-15T10:27:12.097Z,66.11
2023-05-15T10:30:16.237Z,65.78
2023-05-15T10:33:19.655Z,65.78
2023-05-15T10:36:21.414Z,65.76
2023-05-15T10:39:23.153Z,64.50
2023-05-15T10:42:26.718Z,64.70
2023-05-15T10:45:29.551Z,64.99
2023-05-15T10:48:31.302Z,65.26
2023-05-15T10:51:33.554Z,65.36
2023-05-15T10:54:35.461Z,64.95
2023-05-15T10:57:38.065Z,64.99
2023-05-15T11:00:44.741Z,64.76
2023-05-15T11:03:49.986Z,65.04
2023-05-15T11:07:11.709Z,65.36
2023-05-15T11:10:36.576Z,65.34
2023-05-15T11:14:06.695Z,64.89
2023-05-15T11:17:12.382Z,65.09
2023-05-15T11:20:14.200Z,65.24
2023-05-15T11:23:15.758Z,65.22
2023-05-15T11:26:32.680Z,65.07
2023-05-15T11:29:34.271Z,65.08
2023-05-15T11:32:44.642Z,64.85
2023-05-15T11:35:57.963Z,64.99
2023-05-15T11:38:59.700Z,65.09
2023-05-15T11:42:11.171Z,65.15
2023-05-15T11:45:12.755Z,65.23
2023-05-15T11:48:16.509Z,65.33
2023-05-15T11:51:20.019Z,65.47
2023-05-15T11:54:21.795Z,65.39
2023-05-15T11:57:23.819Z,65.46
2023-05-15T12:00:25.777Z,65.53
2023-05-15T12:03:33.128Z,65.67
2023-05-15T12:06:34.794Z,65.59
2023-05-15T12:09:36.620Z,65.54
2023-05-15T12:12:45.334Z,65.13
2023-05-15T12:15:47.372Z,65.19
2023-05-15T12:18:50.009Z,64.70
2023-05-15T12:21:51.633Z,64.34
2023-05-15T12:24:53.469Z,63.62
2023-05-15T12:27:55.337Z,62.91
2023-05-15T12:30:57.381Z,62.66
2023-05-15T12:33:59.376Z,61.80
2023-05-15T12:37:00.935Z,61.40
2023-05-15T12:40:04.551Z,61.13
2023-05-15T12:43:07.629Z,61.19
2023-05-15T12:46:09.987Z,60.15
2023-05-15T12:49:12.039Z,60.67
2023-05-15T12:52:15.452Z,60.84
2023-05-15T12:55:18.219Z,60.26
2023-05-15T12:58:20.002Z,59.41
2023-05-15T13:01:21.630Z,58.72
2023-05-15T13:04:23.828Z,56.46
2023-05-15T13:07:25.405Z,55.65
2023-05-15T13:10:27.515Z,55.65
2023-05-15T13:13:46.676Z,56.87
2023-05-15T13:16:48.315Z,55.25
2023-05-15T13:19:49.918Z,53.41
2023-05-15T13:22:51.647Z,53.49
2023-05-15T13:25:53.218Z,54.34
2023-05-15T13:28:54.876Z,54.84
2023-05-15T13:31:56.434Z,53.77
2023-05-15T13:34:58.318Z,53.54
2023-05-15T13:37:59.902Z,53.46
2023-05-15T13:41:01.608Z,51.58
2023-05-15T13:44:03.245Z,52.71
2023-05-15T13:47:05.119Z,52.49
2023-05-15T13:50:08.751Z,52.57
2023-05-15T13:53:10.265Z,53.33
2023-05-15T13:56:12.306Z,53.65
2023-05-15T13:59:13.850Z,54.33
2023-05-15T14:02:15.622Z,55.23
2023-05-15T14:05:17.346Z,56.19
2023-05-15T14:08:18.923Z,55.78
2023-05-15T14:11:20.548Z,55.00
2023-05-15T14:14:22.130Z,54.64
2023-05-15T14:17:23.656Z,55.16
2023-05-15T14:20:25.481Z,54.17
2023-05-15T14:23:27.221Z,55.34
2023-05-15T14:26:28.912Z,54.62
2023-05-15T14:29:30.494Z,55.64
2023-05-15T14:32:32.309Z,56.87
2023-05-15T14:35:34.172Z,56.97
2023-05-15T14:38:37.533Z,57.50
2023-05-15T14:41:39.090Z,58.36
2023-05-15T14:44:40.710Z,58.95
2023-05-15T14:47:42.313Z,59.48
2023-05-15T14:50:43.959Z,59.69
2023-05-15T14:53:45.581Z,60.15
2023-05-15T14:56:48.452Z,60.33
2023-05-15T14:59:50.058Z,60.69
2023-05-15T15:02:51.725Z,61.99
2023-05-15T15:05:53.662Z,61.58
2023-05-15T15:08:55.206Z,62.18
2023-05-15T15:11:56.852Z,62.17
2023-05-15T15:14:58.488Z,61.73
2023-05-15T15:18:00.671Z,61.70
2023-05-15T15:21:02.304Z,61.93
2023-05-15T15:24:04.025Z,61.69
2023-05-15T15:27:05.744Z,61.23
2023-05-15T15:30:08.912Z,60.69
2023-05-15T15:33:10.564Z,60.36
2023-05-15T15:36:12.155Z,60.09
2023-05-15T15:39:13.713Z,60.17
2023-05-15T15:42:15.275Z,60.17
2023-05-15T15:45:16.849Z,60.63
2023-05-15T15:48:18.605Z,61.16
2023-05-15T15:51:20.230Z,61.41
2023-05-15T15:54:21.962Z,61.66
2023-05-15T15:57:23.702Z,61.76
2023-05-15T16:00:25.467Z,62.31
2023-05-15T16:03:27.555Z,62.97
2023-05-15T16:06:29.226Z,63.31
2023-05-15T16:09:31.502Z,63.78
2023-05-15T16:12:33.153Z,64.51
2023-05-15T16:15:34.808Z,65.08
2023-05-15T16:18:36.357Z,65.20
2023-05-15T16:21:37.961Z,65.11
2023-05-15T16:24:39.688Z,65.00
2023-05-15T16:27:41.359Z,65.08
2023-05-15T16:33:47.589Z,65.39
2023-05-15T16:36:49.150Z,65.41
2023-05-15T16:39:50.726Z,65.33
2023-05-15T16:42:52.265Z,66.25
2023-05-15T16:45:53.923Z,66.37
2023-05-15T16:48:55.667Z,66.50
2023-05-15T16:51:57.254Z,66.49
2023-05-15T16:54:58.815Z,66.61
2023-05-15T16:58:00.438Z,66.74
2023-05-15T17:01:02.100Z,66.79
2023-05-15T17:04:04.000Z,65.82
2023-05-15T17:07:06.132Z,64.68
2023-05-15T17:10:08.590Z,63.69
2023-05-15T17:13:10.206Z,63.33
2023-05-15T17:16:12.212Z,63.85
2023-05-15T17:19:13.829Z,64.22
2023-05-15T17:22:15.542Z,64.69
2023-05-15T17:25:17.082Z,65.11
2023-05-15T17:28:18.973Z,65.46
2023-05-15T17:31:21.606Z,65.66
2023-05-15T17:34:23.282Z,66.01
2023-05-15T17:37:24.823Z,66.22
2023-05-15T17:40:26.655Z,66.21
2023-05-15T17:43:28.454Z,66.56
2023-05-15T17:46:30.250Z,66.67
2023-05-15T17:49:31.932Z,66.77
2023-05-15T17:52:35.469Z,66.99
2023-05-15T17:55:37.138Z,67.63
2023-05-15T17:58:38.906Z,67.76
2023-05-15T18:01:40.454Z,67.90
2023-05-15T18:04:42.119Z,67.97
2023-05-15T18:07:43.892Z,68.13
2023-05-15T18:10:45.997Z,68.29
2023-05-15T18:13:47.571Z,68.68
2023-05-15T18:16:49.394Z,69.33
2023-05-15T18:19:50.928Z,69.12
2023-05-15T18:22:52.888Z,70.73
2023-05-15T18:25:54.506Z,70.85
2023-05-15T18:28:56.011Z,70.06
2023-05-15T18:31:57.715Z,69.93
2023-05-15T18:34:59.702Z,70.05
2023-05-15T18:38:01.490Z,70.12
2023-05-15T18:41:03.205Z,70.29
2023-05-15T18:44:04.896Z,69.95
2023-05-15T18:47:06.770Z,69.78
2023-05-15T18:50:08.884Z,69.59
2023-05-15T18:53:10.490Z,69.51
2023-05-15T18:56:12.039Z,69.37
2023-05-15T18:59:13.837Z,69.41
2023-05-15T19:02:15.581Z,69.12
2023-05-15T19:05:17.257Z,69.10
2023-05-15T19:08:18.995Z,69.01
2023-05-15T19:11:20.617Z,68.91
2023-05-15T19:14:22.285Z,68.94
2023-05-15T19:17:23.900Z,68.76
2023-05-15T19:20:25.757Z,68.66
2023-05-15T19:23:27.473Z,68.85
2023-05-15T19:26:29.196Z,68.86
2023-05-15T19:29:30.868Z,68.90
2023-05-15T19:32:32.708Z,69.00
2023-05-15T19:35:37.784Z,68.81
2023-05-15T19:38:39.618Z,68.98
2023-05-15T19:41:41.191Z,69.41
2023-05-15T19:44:42.912Z,69.13
2023-05-15T19:47:44.461Z,68.97
2023-05-15T19:50:46.220Z,68.93
2023-05-15T19:53:47.925Z,68.94
2023-05-15T19:56:49.660Z,69.00
2023-05-15T19:59:51.235Z,69.05
2023-05-15T20:02:53.105Z,68.90
2023-05-15T20:05:54.789Z,69.10
2023-05-15T20:08:56.461Z,69.21
2023-05-15T20:11:58.192Z,69.46
2023-05-15T20:14:59.955Z,69.60
2023-05-15T20:18:01.681Z,69.67
2023-05-15T20:21:03.618Z,69.87
2023-05-15T20:24:05.477Z,69.89
2023-05-15T20:27:08.353Z,70.27
2023-05-15T20:30:10.607Z,70.32
2023-05-15T20:33:12.293Z,69.88
2023-05-15T20:36:13.872Z,69.72
2023-05-15T20:39:15.632Z,69.79
2023-05-15T20:42:17.286Z,69.84
2023-05-15T20:45:19.489Z,70.11
2023-05-15T20:48:21.254Z,69.89
2023-05-15T20:51:22.832Z,70.00
2023-05-15T20:54:24.428Z,70.08
2023-05-15T20:57:26.220Z,70.15
2023-05-15T21:00:28.342Z,70.42
2023-05-15T21:03:30.389Z,70.37
2023-05-15T21:06:32.074Z,70.42
2023-05-15T21:09:33.722Z,70.41
2023-05-15T21:12:35.298Z,70.46
2023-05-15T21:15:37.017Z,70.54
2023-05-15T21:18:38.870Z,70.71
2023-05-15T21:21:40.698Z,70.73
2023-05-15T21:24:42.430Z,70.71
2023-05-15T21:27:44.344Z,70.75
2023-05-15T21:30:46.057Z,70.73
2023-05-15T21:33:47.674Z,70.93
2023-05-15T21:36:49.175Z,70.75
2023-05-15T21:39:50.886Z,71.34
2023-05-15T21:42:52.440Z,71.56
2023-05-15T21:45:54.576Z,71.51
2023-05-15T21:48:57.932Z,72.12
2023-05-15T21:51:59.624Z,72.12
2023-05-15T21:55:01.340Z,71.93
2023-05-15T21:58:03.070Z,71.56
2023-05-15T22:01:04.652Z,71.63
2023-05-15T22:04:06.425Z,72.01
2023-05-15T22:07:08.062Z,72.03
2023-05-15T22:10:09.880Z,72.09
2023-05-15T22:13:11.414Z,71.85
2023-05-15T22:16:12.976Z,71.67
2023-05-15T22:19:31.451Z,71.56
2023-05-15T22:22:35.738Z,71.73
2023-05-15T22:25:37.352Z,71.74
2023-05-15T22:28:39.105Z,71.53
2023-05-15T22:31:40.694Z,71.33
2023-05-15T22:34:42.338Z,71.24
2023-05-15T22:37:44.082Z,71.26
2023-05-15T22:40:50.606Z,71.34
2023-05-15T22:43:52.178Z,71.27
2023-05-15T22:46:53.791Z,71.50
2023-05-15T22:49:55.584Z,72.01
2023-05-15T22:52:57.219Z,72.06
2023-05-15T22:55:58.814Z,72.04
2023-05-15T22:59:00.456Z,72.63
2023-05-15T23:02:02.241Z,72.63
2023-05-15T23:05:04.252Z,72.52
2023-05-15T23:08:06.050Z,72.83
2023-05-15T23:11:07.689Z,72.51
2023-05-15T23:14:09.412Z,72.73
2023-05-15T23:17:11.043Z,72.42
2023-05-15T23:20:12.583Z,72.25
2023-05-15T23:23:14.212Z,72.20
2023-05-15T23:26:15.980Z,72.38
2023-05-15T23:29:17.618Z,72.69
2023-05-15T23:32:19.449Z,72.69
2023-05-15T23:35:21.217Z,72.56
2023-05-15T23:38:22.817Z,72.61
2023-05-15T23:41:24.355Z,72.51
2023-05-15T23:44:25.998Z,72.46
2023-05-15T23:47:27.732Z,72.57
2023-05-15T23:50:29.597Z,72.77
2023-05-15T23:53:31.285Z,72.72
2023-05-15T23:56:32.902Z,72.91
2023-05-15T23:59:34.563Z,72.85
